Time;durP1;ratioP1;P1;durP2;ratioP2;P2;SDS_P1;SDS_P2;PMS_P1;PMS_P2;Temp;Humidity;BMP_temperature;BMP_pressure;BME280_temperature;BME280_humidity;BME280_pressure;Samples;Min_cycle;Max_cycle;Signal;HPM_P1;HPM_P2
2022/08/29 00:00:57;;;;;;;4.63;3.00;;;;;;;23.84;50.92;102276.34;5096207;28;20024;-84
2022/08/29 00:03:23;;;;;;;4.28;2.72;;;;;;;23.80;50.70;102281.84;5096028;28;20020;-85
2022/08/29 00:05:48;;;;;;;6.50;2.92;;;;;;;23.80;50.98;102288.28;5111910;28;20047;-86
2022/08/29 00:08:14;;;;;;;5.60;3.10;;;;;;;23.79;50.85;102281.03;5094760;28;20031;-84
2022/08/29 00:10:40;;;;;;;5.15;3.20;;;;;;;23.74;51.14;102277.75;5095983;28;20466;-83
2022/08/29 00:13:07;;;;;;;9.88;3.55;;;;;;;23.73;51.41;102288.13;5095677;28;20107;-86
2022/08/29 00:15:34;;;;;;;5.30;3.25;;;;;;;23.76;51.19;102280.97;5094494;28;20040;-87
2022/08/29 00:18:00;;;;;;;4.40;3.45;;;;;;;23.75;50.97;102282.97;5094746;28;20397;-87
2022/08/29 00:20:28;;;;;;;6.20;3.72;;;;;;;23.73;50.86;102279.75;5095970;28;20077;-89
2022/08/29 00:22:58;;;;;;;7.70;3.67;;;;;;;23.69;51.24;102276.06;5095974;28;20069;-81
2022/08/29 00:25:24;;;;;;;5.97;3.65;;;;;;;23.69;51.10;102281.63;5094712;28;20085;-82
2022/08/29 00:27:50;;;;;;;5.30;3.38;;;;;;;23.68;51.30;102276.41;5095897;28;20103;-87
2022/08/29 00:30:18;;;;;;;5.28;3.80;;;;;;;23.65;51.30;102277.94;5095544;28;20104;-81
2022/08/29 00:32:43;;;;;;;7.25;3.63;;;;;;;23.68;51.18;102285.59;5095617;28;20107;-86
2022/08/29 00:35:27;;;;;;;6.55;2.95;;;;;;;23.63;51.41;102277.50;5094564;28;20056;-86
2022/08/29 00:37:54;;;;;;;5.35;2.83;;;;;;;23.70;51.14;102277.66;5093780;28;20746;-88
2022/08/29 00:40:24;;;;;;;5.97;2.75;;;;;;;23.64;51.42;102281.91;5095166;28;20044;-84
2022/08/29 00:42:50;;;;;;;6.15;2.65;;;;;;;23.75;51.34;102277.38;5094258;28;20355;-82
2022/08/29 00:45:16;;;;;;;5.93;3.00;;;;;;;23.77;51.55;102277.81;5095138;28;20035;-81
2022/08/29 00:47:51;;;;;;;4.93;2.50;;;;;;;23.80;51.13;102277.09;5095310;28;20039;-86
2022/08/29 00:50:47;;;;;;;4.03;2.53;;;;;;;23.79;51.78;102272.66;5093843;28;20107;-80
2022/08/29 00:53:15;;;;;;;6.25;2.97;;;;;;;23.84;51.52;102271.59;5094237;28;20028;-81
2022/08/29 00:55:44;;;;;;;7.75;2.92;;;;;;;23.80;51.80;102277.09;5093874;28;20402;-86
2022/08/29 00:58:15;;;;;;;8.30;3.53;;;;;;;23.83;51.97;102275.56;5093293;28;20119;-86
2022/08/29 01:00:42;;;;;;;5.18;2.63;;;;;;;23.85;51.64;102272.38;5093971;28;20390;-87
2022/08/29 01:03:08;;;;;;;6.30;2.90;;;;;;;23.76;52.00;102281.78;5093938;28;20024;-87
2022/08/29 01:05:36;;;;;;;4.45;3.20;;;;;;;23.77;52.12;102277.00;5093853;28;20038;-83
2022/08/29 01:08:02;;;;;;;6.20;3.08;;;;;;;23.77;52.35;102279.81;5094836;28;20024;-80
2022/08/29 01:13:12;;;;;;;5.60;3.45;;;;;;;23.82;52.37;102276.72;5094661;28;20066;-82
2022/08/29 01:15:39;;;;;;;5.93;3.70;;;;;;;23.83;52.23;102277.53;5094503;28;20024;-82
2022/08/29 01:18:08;;;;;;;4.53;3.25;;;;;;;23.82;52.45;102273.94;5093438;28;20043;-85
2022/08/29 01:20:43;;;;;;;4.78;3.40;;;;;;;23.83;52.51;102275.56;5094500;28;20028;-86
2022/08/29 01:23:19;;;;;;;6.97;3.65;;;;;;;23.78;52.35;102281.41;5093214;28;20020;-88
2022/08/29 01:25:50;;;;;;;7.80;5.07;;;;;;;23.84;52.59;102282.75;5093473;28;20440;-81
2022/08/29 01:28:15;;;;;;;7.20;4.97;;;;;;;23.82;52.49;102275.91;5093466;28;20051;-80
2022/08/29 01:31:02;;;;;;;8.15;4.10;;;;;;;23.84;52.35;102270.78;5093391;28;20471;-80
2022/08/29 01:33:40;;;;;;;7.03;3.85;;;;;;;23.76;52.69;102280.97;5093312;28;20027;-86
2022/08/29 01:36:09;;;;;;;5.93;3.88;;;;;;;23.76;52.62;102279.00;5093289;28;20024;-87
2022/08/29 01:38:36;;;;;;;6.05;4.57;;;;;;;23.76;52.53;102278.19;5094428;28;20096;-87
2022/08/29 01:41:02;;;;;;;7.05;4.07;;;;;;;23.70;52.82;102288.03;5093356;28;20024;-86
2022/08/29 01:43:28;;;;;;;6.22;4.07;;;;;;;23.69;53.16;102286.41;5093244;28;20082;-87
2022/08/29 01:45:56;;;;;;;8.80;4.63;;;;;;;23.73;52.89;102282.53;5093293;28;20020;-88
2022/08/29 01:48:22;;;;;;;7.78;3.85;;;;;;;23.74;52.70;102275.78;5094362;28;20039;-85
2022/08/29 01:50:48;;;;;;;6.13;4.00;;;;;;;23.76;53.01;102290.16;5093198;28;20021;-88
2022/08/29 01:53:13;;;;;;;5.88;4.00;;;;;;;23.76;52.88;102281.78;5093484;28;20024;-87
2022/08/29 01:55:41;;;;;;;5.75;3.88;;;;;;;23.73;52.93;102288.13;5093018;28;20027;-86
2022/08/29 01:58:07;;;;;;;7.80;4.30;;;;;;;23.71;53.42;102293.22;5094134;28;20486;-87
2022/08/29 02:00:34;;;;;;;9.25;4.65;;;;;;;23.72;52.83;102294.84;5094180;28;20026;-85
2022/08/29 02:03:00;;;;;;;6.68;4.05;;;;;;;23.76;53.04;102292.13;5092754;28;20038;-85
2022/08/29 02:05:28;;;;;;;7.85;4.60;;;;;;;23.77;53.21;102294.56;5094048;28;20073;-86
2022/08/29 02:07:53;;;;;;;7.95;5.85;;;;;;;23.74;53.22;102295.31;5092938;28;20025;-86
2022/08/29 02:10:19;;;;;;;7.97;5.13;;;;;;;23.78;52.83;102290.59;5092010;28;20053;-86
2022/08/29 02:12:45;;;;;;;6.63;4.90;;;;;;;23.83;52.54;102277.53;5093104;28;20028;-87
2022/08/29 02:15:12;;;;;;;7.05;5.28;;;;;;;23.86;52.73;102283.19;5092529;28;20044;-87
2022/08/29 02:17:38;;;;;;;7.95;5.20;;;;;;;23.84;52.74;102276.34;5092437;28;20040;-87
2022/08/29 02:20:07;;;;;;;10.57;5.00;;;;;;;23.68;53.46;102277.22;5092714;28;20032;-86
2022/08/29 02:22:34;;;;;;;8.77;4.50;;;;;;;23.69;53.09;102276.06;5092439;28;20061;-87
2022/08/29 02:25:00;;;;;;;8.43;5.35;;;;;;;23.73;53.25;102279.75;5092596;28;20065;-85
2022/08/29 02:27:27;;;;;;;6.47;4.57;;;;;;;23.67;53.07;102275.63;5092513;28;20478;-86
2022/08/29 02:29:52;;;;;;;12.07;5.43;;;;;;;23.76;53.03;102280.97;5093624;28;20028;-81
2022/08/29 02:32:18;;;;;;;9.65;5.15;;;;;;;23.75;52.85;102276.56;5093779;28;20535;-86
2022/08/29 02:34:44;;;;;;;6.38;4.95;;;;;;;23.77;52.53;102277.00;5092072;28;20031;-86
2022/08/29 02:37:11;;;;;;;5.53;4.60;;;;;;;23.80;52.43;102274.31;5092669;28;20058;-87
2022/08/29 02:39:37;;;;;;;6.78;5.10;;;;;;;23.78;52.79;102279.44;5092297;28;20030;-81
2022/08/29 02:42:03;;;;;;;12.77;5.70;;;;;;;23.76;52.70;102279.00;5109341;28;20024;-81
2022/08/29 02:44:30;;;;;;;7.15;5.50;;;;;;;23.80;52.77;102281.84;5093643;28;20367;-86
2022/08/29 02:46:56;;;;;;;10.05;8.13;;;;;;;23.79;52.75;102283.84;5108942;28;20039;-87
2022/08/29 02:49:21;;;;;;;12.10;11.13;;;;;;;23.80;52.75;102270.69;5092406;28;20024;-87
2022/08/29 02:51:47;;;;;;;8.60;5.55;;;;;;;23.80;52.90;102284.63;5093289;28;20028;-86
2022/08/29 02:54:13;;;;;;;8.73;6.30;;;;;;;23.83;52.74;102294.28;5092286;28;20028;-86
2022/08/29 02:56:39;;;;;;;9.68;7.25;;;;;;;23.73;53.38;102293.69;5093452;28;20027;-87
2022/08/29 02:59:07;;;;;;;7.80;6.28;;;;;;;23.84;52.82;102287.53;5093214;28;20432;-81
2022/08/29 03:01:33;;;;;;;10.27;6.22;;;;;;;23.90;53.09;102280.47;5093192;28;20016;-87
2022/08/29 03:03:59;;;;;;;9.93;7.10;;;;;;;23.87;53.12;102276.41;5093202;28;20043;-81
2022/08/29 03:06:24;;;;;;;9.80;6.38;;;;;;;23.92;53.00;102278.13;5092083;28;20120;-86
2022/08/29 03:08:50;;;;;;;8.07;6.18;;;;;;;23.93;52.97;102282.53;5109346;28;20417;-87
2022/08/29 03:11:16;;;;;;;11.75;7.53;;;;;;;23.92;53.00;102272.53;5092113;28;20024;-82
2022/08/29 03:13:43;;;;;;;11.38;6.20;;;;;;;23.91;52.91;102270.94;5092075;28;20097;-86
2022/08/29 03:16:09;;;;;;;9.30;6.53;;;;;;;23.91;53.15;102280.09;5093075;28;20057;-87
2022/08/29 03:18:35;;;;;;;9.73;6.85;;;;;;;23.91;52.68;102274.53;5091710;28;20066;-83
2022/08/29 03:21:01;;;;;;;14.60;8.10;;;;;;;23.89;53.08;102271.28;5092673;28;20400;-86
2022/08/29 03:23:27;;;;;;;12.73;7.68;;;;;;;23.91;52.89;102270.94;5097002;28;20028;-89
2022/08/29 03:25:53;;;;;;;9.07;6.03;;;;;;;23.90;53.24;102270.13;5095730;28;20062;-81
2022/08/29 03:28:19;;;;;;;12.82;8.35;;;;;;;23.93;53.10;102269.38;5095975;28;20031;-86
2022/08/29 03:30:45;;;;;;;13.93;7.45;;;;;;;23.86;53.00;102276.78;5095797;28;20028;-86
2022/08/29 03:33:11;;;;;;;12.25;8.38;;;;;;;23.96;52.77;102268.66;5095835;28;20039;-86
2022/08/29 03:35:37;;;;;;;8.38;6.65;;;;;;;23.93;52.65;102268.56;5095753;28;20478;-87
2022/08/29 03:38:02;;;;;;;17.20;6.93;;;;;;;23.89;52.80;102267.69;5096853;28;20035;-87
2022/08/29 03:40:28;;;;;;;10.23;6.22;;;;;;;23.93;52.68;102263.78;5096916;28;20097;-87
2022/08/29 03:42:54;;;;;;;6.88;6.10;;;;;;;23.91;52.89;102257.78;5095550;28;20093;-85
2022/08/29 03:45:20;;;;;;;8.32;7.20;;;;;;;23.85;52.81;102256.44;5095826;28;20034;-87
2022/08/29 03:47:46;;;;;;;9.88;7.10;;;;;;;23.87;52.94;102264.44;5096720;28;20024;-87
2022/08/29 03:50:13;;;;;;;12.38;6.57;;;;;;;23.85;53.27;102256.44;5095874;28;20031;-86
2022/08/29 03:52:42;;;;;;;9.75;7.78;;;;;;;23.84;52.82;102267.97;5095865;28;20055;-87
2022/08/29 03:55:09;;;;;;;9.18;7.93;;;;;;;23.89;53.05;102253.75;5096971;28;20027;-88
2022/08/29 03:57:34;;;;;;;10.55;7.13;;;;;;;23.89;53.04;102256.53;5095659;28;20454;-87
2022/08/29 04:00:09;;;;;;;16.27;9.48;;;;;;;23.91;52.78;102249.41;5095477;28;20056;-87
2022/08/29 04:02:35;;;;;;;13.05;8.93;;;;;;;23.89;53.17;102256.53;5096978;28;20028;-87
2022/08/29 04:05:07;;;;;;;13.77;8.77;;;;;;;23.86;53.33;102246.09;5095446;28;20024;-82
2022/08/29 04:07:49;;;;;;;13.65;9.18;;;;;;;23.80;53.43;102249.19;5095381;28;20024;-87
2022/08/29 04:10:33;;;;;;;13.43;10.27;;;;;;;23.88;53.83;102254.88;5095635;28;20121;-83
2022/08/29 04:12:59;;;;;;;15.35;10.57;;;;;;;23.91;53.08;102254.19;5111997;28;20039;-87
2022/08/29 04:15:27;;;;;;;15.20;10.15;;;;;;;23.84;53.59;102254.84;5095029;28;20454;-87
2022/08/29 04:17:55;;;;;;;16.55;12.35;;;;;;;23.84;53.85;102256.81;5111709;28;20521;-86
2022/08/29 04:20:23;;;;;;;17.15;10.63;;;;;;;23.83;53.92;102256.00;5095088;28;20028;-86
2022/08/29 04:22:49;;;;;;;19.08;12.65;;;;;;;23.78;54.78;102259.09;5096244;28;20386;-87
2022/08/29 04:25:16;;;;;;;22.15;13.52;;;;;;;23.94;54.17;102259.81;5094420;28;20032;-83
2022/08/29 04:27:42;;;;;;;17.15;13.23;;;;;;;23.95;54.37;102255.03;5096187;28;20032;-84
2022/08/29 04:30:14;;;;;;;17.23;13.65;;;;;;;23.93;54.58;102262.97;5094984;28;20123;-86
2022/08/29 04:32:41;;;;;;;19.60;14.32;;;;;;;23.91;54.50;102254.19;5093982;28;20028;-88
2022/08/29 04:35:07;;;;;;;19.27;11.88;;;;;;;23.97;54.41;102253.50;5094978;28;20382;-86
2022/08/29 04:37:33;;;;;;;25.33;13.60;;;;;;;23.94;54.79;102247.84;5095627;28;20107;-87
2022/08/29 04:40:00;;;;;;;17.42;12.48;;;;;;;23.86;55.07;102246.09;5096041;28;20095;-87
2022/08/29 04:42:25;;;;;;;16.92;14.77;;;;;;;23.97;54.65;102247.94;5094637;28;20036;-86
2022/08/29 04:44:51;;;;;;;16.90;13.70;;;;;;;23.96;54.79;102245.50;5359499;22;20053;-85
2022/08/29 04:47:17;;;;;;;20.92;14.43;;;;;;;23.94;55.01;102247.84;5035408;28;20084;-85
2022/08/29 04:49:42;;;;;;;28.60;16.55;;;;;;;23.93;54.95;102251.81;5035008;28;20030;-81
2022/08/29 04:52:09;;;;;;;21.20;12.75;;;;;;;23.96;54.92;102251.09;5050875;28;20041;-84
2022/08/29 04:54:35;;;;;;;24.98;12.85;;;;;;;23.92;54.90;102251.00;5034239;28;20543;-83
2022/08/29 04:57:04;;;;;;;26.98;19.73;;;;;;;23.83;55.38;102250.44;5033821;28;20116;-81
2022/08/29 04:59:30;;;;;;;25.20;22.42;;;;;;;23.94;55.05;102253.44;5034253;28;20029;-86
2022/08/29 05:01:56;;;;;;;23.42;19.70;;;;;;;23.93;55.29;102252.63;5033864;28;20431;-82
2022/08/29 05:04:21;;;;;;;19.83;18.00;;;;;;;23.84;55.60;102271.59;5033664;28;20072;-85
2022/08/29 05:06:47;;;;;;;28.08;24.25;;;;;;;23.88;55.59;102263.25;5033480;28;20597;-87
2022/08/29 05:09:13;;;;;;;27.75;20.90;;;;;;;23.97;55.51;102263.88;5034962;28;20035;-81
2022/08/29 05:11:40;;;;;;;27.67;15.00;;;;;;;24.06;55.03;102273.63;5033542;28;20021;-81
2022/08/29 05:14:05;;;;;;;20.73;17.55;;;;;;;24.05;55.39;102274.00;5035164;28;20053;-86
2022/08/29 05:16:35;;;;;;;16.05;11.68;;;;;;;24.09;54.84;102278.47;5033645;28;20462;-86
2022/08/29 05:19:04;;;;;;;21.52;14.85;;;;;;;23.99;55.57;102281.06;5033555;28;20072;-80
2022/08/29 05:21:34;;;;;;;21.48;12.77;;;;;;;23.93;56.15;102282.53;5034755;28;20364;-87
2022/08/29 05:24:01;;;;;;;22.23;13.25;;;;;;;23.95;56.01;102277.38;5034787;28;20021;-80
2022/08/29 05:26:32;;;;;;;18.77;14.82;;;;;;;23.88;56.46;102282.81;5034797;28;20034;-81
2022/08/29 05:28:58;;;;;;;23.70;14.95;;;;;;;24.02;55.54;102291.47;5033345;28;20391;-86
2022/08/29 05:31:24;;;;;;;23.25;17.20;;;;;;;23.97;55.84;102289.81;5034834;28;20022;-81
2022/08/29 05:33:50;;;;;;;29.85;26.15;;;;;;;24.03;55.48;102290.28;5034509;28;20064;-87
2022/08/29 05:36:16;;;;;;;27.83;16.75;;;;;;;24.05;55.71;102293.56;5029804;28;20502;-81
2022/08/29 05:38:41;;;;;;;27.42;24.77;;;;;;;24.11;55.16;102288.47;5016664;28;20022;-87
2022/08/29 05:41:07;;;;;;;26.58;19.20;;;;;;;24.07;55.45;102296.78;5034533;28;20087;-88
2022/08/29 05:43:34;;;;;;;28.85;23.38;;;;;;;24.03;55.39;102288.34;5049465;28;20395;-81
2022/08/29 05:46:05;;;;;;;15.38;12.75;;;;;;;23.95;55.98;102292.13;5032420;28;20061;-81
2022/08/29 05:48:32;;;;;;;26.63;15.82;;;;;;;24.02;55.49;102294.28;5032093;28;20471;-86
2022/08/29 05:50:58;;;;;;;20.73;11.27;;;;;;;24.06;55.68;102297.97;5034243;28;20021;-86
2022/08/29 05:53:24;;;;;;;19.42;12.30;;;;;;;24.09;55.30;102298.00;5033049;28;20144;-81
2022/08/29 05:55:49;;;;;;;27.35;15.13;;;;;;;24.08;55.39;102298.38;5033015;28;20033;-87
2022/08/29 05:58:17;;;;;;;21.23;11.55;;;;;;;24.16;55.28;102288.97;5032900;28;20080;-82
2022/08/29 06:00:45;;;;;;;25.10;20.38;;;;;;;24.22;55.03;102295.88;5032929;28;20031;-80
2022/08/29 06:03:12;;;;;;;21.08;18.45;;;;;;;24.27;55.08;102306.75;5033972;28;20108;-87
2022/08/29 06:05:39;;;;;;;31.20;25.65;;;;;;;24.14;55.31;102308.09;5032659;28;20112;-81
2022/08/29 06:08:05;;;;;;;28.58;20.35;;;;;;;24.29;55.16;102304.41;5032767;28;20022;-85
2022/08/29 06:10:32;;;;;;;21.50;17.83;;;;;;;24.34;54.83;102306.13;5032443;28;20482;-86
2022/08/29 06:12:58;;;;;;;20.35;18.25;;;;;;;24.32;54.96;102309.28;5032470;28;20395;-80
2022/08/29 06:15:27;;;;;;;24.67;19.25;;;;;;;24.38;54.54;102308.97;5032802;28;20022;-82
2022/08/29 06:17:53;;;;;;;19.95;17.85;;;;;;;24.21;55.46;102313.81;5033984;28;20030;-83
2022/08/29 06:20:20;;;;;;;16.38;14.32;;;;;;;24.35;55.19;102308.53;5032400;28;20037;-81
2022/08/29 06:22:45;;;;;;;24.48;15.65;;;;;;;24.27;55.43;102311.53;5033750;28;20034;-85
2022/08/29 06:25:11;;;;;;;25.70;20.77;;;;;;;24.31;55.28;102312.41;5032894;28;20036;-85
2022/08/29 06:27:37;;;;;;;20.90;10.65;;;;;;;24.39;55.24;102305.00;5029215;28;20032;-84
2022/08/29 06:30:03;;;;;;;19.00;11.88;;;;;;;24.41;55.01;102300.69;5026680;28;20029;-85
2022/08/29 06:32:29;;;;;;;26.77;12.95;;;;;;;24.47;55.23;102303.94;5023327;28;20028;-87
2022/08/29 06:34:55;;;;;;;15.68;10.40;;;;;;;24.49;55.10;102304.41;5033536;28;20383;-82
2022/08/29 06:37:20;;;;;;;17.35;10.00;;;;;;;24.57;54.86;102303.38;5033253;28;20029;-82
2022/08/29 06:39:46;;;;;;;19.30;9.88;;;;;;;24.52;54.90;102312.03;5021142;28;20125;-81
2022/08/29 06:42:12;;;;;;;25.05;10.55;;;;;;;24.50;54.85;102320.00;5012310;28;20083;-83
2022/08/29 06:44:37;;;;;;;13.85;9.68;;;;;;;24.60;54.95;102317.38;5011851;28;20389;-81
2022/08/29 06:47:03;;;;;;;23.33;10.73;;;;;;;24.61;54.81;102315.41;5012388;28;20403;-83
2022/08/29 06:49:31;;;;;;;16.90;11.27;;;;;;;24.83;54.02;102323.00;5011932;28;20072;-83
2022/08/29 06:51:56;;;;;;;17.42;11.35;;;;;;;24.86;54.33;102329.81;5013368;28;20018;-86
2022/08/29 06:54:23;;;;;;;14.13;9.25;;;;;;;25.01;53.52;102328.06;5011802;28;20037;-81
2022/08/29 06:56:49;;;;;;;30.77;11.60;;;;;;;25.04;53.60;102324.56;5013925;28;20026;-83
2022/08/29 06:59:16;;;;;;;14.98;8.85;;;;;;;25.01;53.61;102333.66;5015846;28;20113;-82
2022/08/29 07:01:42;;;;;;;24.05;9.88;;;;;;;25.01;53.71;102334.47;5016491;28;20041;-86
2022/08/29 07:04:09;;;;;;;20.05;8.18;;;;;;;25.07;53.64;102329.41;5016658;28;20022;-81
2022/08/29 07:06:36;;;;;;;19.73;9.82;;;;;;;25.25;53.18;102336.13;5015774;28;20113;-83
2022/08/29 07:09:02;;;;;;;17.67;8.60;;;;;;;25.28;53.34;102338.16;5015866;28;20058;-82
2022/08/29 07:11:30;;;;;;;19.42;9.00;;;;;;;25.31;53.11;102329.00;5016093;28;20030;-84
2022/08/29 07:13:58;;;;;;;12.50;7.93;;;;;;;25.35;53.08;102329.06;5015975;28;20033;-89
2022/08/29 07:16:24;;;;;;;13.70;7.75;;;;;;;25.37;52.63;102338.69;5017202;28;20029;-83
2022/08/29 07:18:50;;;;;;;22.45;8.65;;;;;;;25.52;52.35;102336.09;5027580;28;20025;-84
2022/08/29 07:21:17;;;;;;;14.07;8.00;;;;;;;25.49;52.75;102336.88;5035250;28;20042;-85
2022/08/29 07:23:43;;;;;;;17.45;8.40;;;;;;;25.48;52.68;102341.66;5028238;28;20084;-83
2022/08/29 07:26:19;;;;;;;14.70;7.70;;;;;;;25.57;52.28;102349.78;5023886;28;20018;-80
2022/08/29 07:28:46;;;;;;;21.08;8.68;;;;;;;25.66;51.90;102345.50;5047236;28;20024;-80
2022/08/29 07:31:12;;;;;;;18.45;7.93;;;;;;;25.68;52.16;102357.13;5023121;28;20412;-86
2022/08/29 07:33:38;;;;;;;17.52;7.50;;;;;;;25.87;51.80;102352.63;5025374;28;20148;-87
2022/08/29 07:36:04;;;;;;;21.20;8.18;;;;;;;25.94;51.81;102347.94;5024529;28;20097;-85
2022/08/29 07:38:31;;;;;;;13.15;7.47;;;;;;;25.93;51.72;102362.34;5021927;28;20030;-83
2022/08/29 07:40:59;;;;;;;15.95;8.15;;;;;;;25.96;51.48;102351.16;5031132;28;20407;-84
2022/08/29 07:43:25;;;;;;;14.30;7.97;;;;;;;26.02;50.96;102353.63;5018164;28;20454;-88
2022/08/29 07:45:51;;;;;;;13.55;7.32;;;;;;;25.94;51.21;102359.13;5026596;28;20041;-90
2022/08/29 07:48:16;;;;;;;20.48;8.70;;;;;;;25.81;51.25;102357.75;5050914;28;20495;-90
2022/08/29 07:50:42;;;;;;;41.00;11.20;;;;;;;25.75;51.38;102358.47;5021032;28;20027;-85
2022/08/29 07:53:08;;;;;;;17.95;8.30;;;;;;;25.68;51.34;102354.34;5024149;28;20486;-86
2022/08/29 07:55:35;;;;;;;18.38;9.05;;;;;;;25.85;50.85;102355.81;5026958;28;20057;-88
2022/08/29 07:58:02;;;;;;;17.13;7.90;;;;;;;25.93;50.73;102349.13;5048968;28;20652;-87
2022/08/29 08:00:28;;;;;;;16.80;8.10;;;;;;;25.98;50.59;102350.78;5026708;28;20022;-86
2022/08/29 08:02:53;;;;;;;12.35;7.70;;;;;;;26.02;50.68;102354.44;5051771;28;20533;-91
2022/08/29 08:05:19;;;;;;;15.90;8.07;;;;;;;26.05;50.50;102353.66;5025290;28;20026;-84
2022/08/29 08:07:45;;;;;;;15.50;7.78;;;;;;;26.21;50.28;102357.06;5025521;28;20037;-84
2022/08/29 08:10:11;;;;;;;16.52;6.90;;;;;;;26.06;50.96;102357.28;5026214;28;20368;-94
2022/08/29 08:12:36;;;;;;;14.13;7.45;;;;;;;26.10;50.58;102355.34;5040802;28;20018;-85
2022/08/29 08:15:02;;;;;;;20.50;7.97;;;;;;;26.12;50.53;102362.16;5030821;28;20445;-86
2022/08/29 08:17:28;;;;;;;14.90;8.60;;;;;;;26.19;50.41;102361.44;5028785;28;20021;-87
2022/08/29 08:19:53;;;;;;;16.75;7.78;;;;;;;26.26;50.17;102358.75;5023008;28;20026;-87
2022/08/29 08:22:19;;;;;;;14.93;7.70;;;;;;;26.14;50.43;102362.59;5020052;28;20125;-92
2022/08/29 08:24:45;;;;;;;106.68;21.17;;;;;;;26.31;49.57;102364.00;5025298;28;20022;-86
2022/08/29 08:27:11;;;;;;;103.07;23.02;;;;;;;26.16;50.00;102363.03;5024454;28;20028;-85
2022/08/29 08:29:36;;;;;;;57.17;16.73;;;;;;;26.16;49.99;102371.44;5026175;28;20080;-86
2022/08/29 08:32:02;;;;;;;26.52;9.93;;;;;;;26.19;49.99;102369.84;5015582;28;20052;-80
2022/08/29 08:34:29;;;;;;;54.13;15.93;;;;;;;26.47;49.67;102359.03;5029901;28;20067;-88
2022/08/29 08:36:54;;;;;;;13.27;8.35;;;;;;;26.64;49.42;102365.19;5026392;28;20021;-86
2022/08/29 08:39:47;;;;;;;15.65;8.32;;;;;;;26.76;49.10;102359.31;5031246;28;20068;-95
2022/08/29 08:42:41;;;;;;;18.17;7.85;;;;;;;26.65;48.84;102356.41;5034991;28;20025;-87
2022/08/29 08:45:18;;;;;;;14.60;8.57;;;;;;;26.62;48.99;102365.59;5035543;28;20571;-95
2022/08/29 08:48:02;;;;;;;22.45;7.82;;;;;;;26.66;48.54;102357.19;5051135;28;20041;-87
2022/08/29 08:51:07;;;;;;;11.77;7.53;;;;;;;26.75;48.77;102354.88;5033350;28;20510;-93
2022/08/29 08:53:38;;;;;;;12.98;7.28;;;;;;;26.71;48.34;102359.66;5028286;28;20029;-95
2022/08/29 08:56:15;;;;;;;15.45;7.65;;;;;;;26.42;48.95;102361.34;5025386;28;20025;-86
2022/08/29 08:58:52;;;;;;;14.32;7.18;;;;;;;26.59;48.43;102368.34;5026025;28;20620;-86
2022/08/29 09:01:44;;;;;;;14.50;7.28;;;;;;;26.60;48.62;102359.56;5025962;28;20029;-96
2022/08/29 09:04:44;;;;;;;12.73;6.53;;;;;;;26.77;48.20;102364.53;5028149;28;20032;-96
2022/08/29 09:07:26;;;;;;;13.65;7.45;;;;;;;26.90;47.91;102361.44;5035869;28;20101;-86
2022/08/29 09:10:13;;;;;;;13.02;7.03;;;;;;;26.99;47.67;102368.34;5024023;28;20025;-89
2022/08/29 09:12:59;;;;;;;14.52;6.90;;;;;;;26.99;47.31;102371.16;5053258;28;20022;-85
2022/08/29 09:15:33;;;;;;;13.95;7.30;;;;;;;26.93;47.75;102369.91;5033850;28;20028;-84
2022/08/29 09:18:04;;;;;;;11.98;6.72;;;;;;;27.09;47.67;102361.25;5033149;28;20479;-84
2022/08/29 09:20:34;;;;;;;11.90;7.43;;;;;;;27.17;47.35;102362.13;5033100;28;20039;-84
2022/08/29 09:23:04;;;;;;;16.33;6.97;;;;;;;27.22;47.55;102371.00;5034951;28;20049;-84
2022/08/29 09:25:34;;;;;;;11.18;6.68;;;;;;;27.34;47.26;102356.63;5034529;28;20029;-78
2022/08/29 09:28:03;;;;;;;12.75;6.97;;;;;;;27.39;47.14;102361.09;5034209;28;20422;-81
2022/08/29 09:30:32;;;;;;;15.23;6.40;;;;;;;27.32;46.90;102366.66;5033849;28;20037;-78
2022/08/29 09:33:02;;;;;;;14.40;6.45;;;;;;;27.42;46.53;102374.34;5033758;28;20025;-78
2022/08/29 09:35:46;;;;;;;9.48;6.13;;;;;;;27.44;46.39;102371.97;5033422;28;20021;-79
2022/08/29 09:38:26;;;;;;;14.60;6.88;;;;;;;27.51;46.34;102376.81;5033307;28;20503;-83
2022/08/29 09:41:09;;;;;;;12.93;6.50;;;;;;;27.39;46.53;102372.31;5033507;28;20022;-82
2022/08/29 09:43:37;;;;;;;15.70;7.18;;;;;;;27.41;46.17;102378.34;5030329;28;20029;-83
2022/08/29 09:46:09;;;;;;;31.52;10.52;;;;;;;27.52;46.17;102379.22;5032866;28;20100;-82
2022/08/29 09:48:37;;;;;;;14.73;6.63;;;;;;;27.33;45.90;102373.88;5030170;28;20036;-85
2022/08/29 09:51:23;;;;;;;13.93;7.57;;;;;;;27.42;46.08;102379.94;5030958;28;20064;-83
2022/08/29 09:53:50;;;;;;;11.77;5.93;;;;;;;27.30;46.47;102378.25;5030914;28;20017;-83
2022/08/29 09:56:23;;;;;;;11.32;6.38;;;;;;;27.32;46.14;102375.88;5031537;28;20095;-84
2022/08/29 09:59:22;;;;;;;17.92;7.85;;;;;;;27.50;45.85;102376.00;5032289;28;20347;-83
2022/08/29 10:01:48;;;;;;;11.18;5.85;;;;;;;27.64;45.73;102376.09;5017125;28;20101;-82
2022/08/29 10:04:35;;;;;;;18.63;7.22;;;;;;;27.62;46.23;102386.91;5031986;28;20029;-83
2022/08/29 10:07:18;;;;;;;14.13;6.32;;;;;;;27.95;45.27;102385.13;5032266;28;20120;-83
2022/08/29 10:10:02;;;;;;;17.65;10.98;;;;;;;28.16;45.24;102390.84;5031921;28;20033;-83
2022/08/29 10:12:53;;;;;;;12.05;6.72;;;;;;;28.17;45.02;102386.03;5031613;28;20022;-83
2022/08/29 10:15:25;;;;;;;16.83;6.93;;;;;;;28.13;44.97;102388.84;5031952;28;20133;-86
2022/08/29 10:18:39;;;;;;;16.75;8.10;;;;;;;28.15;44.68;102383.63;5032686;28;20083;-84
2022/08/29 10:21:32;;;;;;;14.05;7.45;;;;;;;28.22;44.55;102384.88;5013667;28;20038;-83
2022/08/29 10:24:18;;;;;;;24.75;7.35;;;;;;;28.31;44.71;102388.94;5033690;28;20506;-83
2022/08/29 10:26:54;;;;;;;14.65;6.45;;;;;;;28.45;44.46;102386.19;5032606;28;20084;-83
2022/08/29 10:29:38;;;;;;;16.10;7.35;;;;;;;28.35;43.97;102398.19;5032152;28;20388;-83
2022/08/29 10:32:45;;;;;;;16.55;6.63;;;;;;;28.23;43.98;102400.53;5030909;28;20036;-83
2022/08/29 10:35:16;;;;;;;18.50;7.63;;;;;;;28.41;43.97;102396.59;5031738;28;20291;-83
2022/08/29 10:37:56;;;;;;;14.65;6.95;;;;;;;28.13;43.70;102400.09;5031447;28;20033;-83
2022/08/29 10:40:41;;;;;;;15.85;8.68;;;;;;;28.32;43.57;102398.97;5031414;28;20060;-83
2022/08/29 10:43:09;;;;;;;16.58;7.57;;;;;;;28.32;43.43;102403.78;5033807;28;20026;-82
2022/08/29 10:45:44;;;;;;;10.73;6.05;;;;;;;28.30;43.77;102400.59;5031177;28;20443;-83
2022/08/29 10:48:20;;;;;;;21.77;6.57;;;;;;;28.37;43.55;102398.59;5031443;28;20388;-82
2022/08/29 10:51:14;;;;;;;12.30;6.45;;;;;;;28.41;43.33;102395.78;5031691;28;20029;-83
2022/08/29 10:53:45;;;;;;;15.73;6.88;;;;;;;28.48;43.09;102391.00;5031322;28;20470;-83
2022/08/29 10:56:23;;;;;;;12.88;7.15;;;;;;;28.47;42.87;102397.81;5031074;28;20018;-83
2022/08/29 10:59:17;;;;;;;18.80;7.38;;;;;;;28.24;43.27;102407.75;5032430;28;20026;-83
2022/08/29 11:02:24;;;;;;;13.77;6.60;;;;;;;28.27;43.29;102406.97;5031275;28;20064;-85
2022/08/29 11:04:55;;;;;;;11.55;6.22;;;;;;;28.25;43.23;102400.91;5033518;28;20021;-85
2022/08/29 11:07:33;;;;;;;13.27;6.20;;;;;;;28.33;43.06;102409.00;5032947;28;20033;-83
2022/08/29 11:10:09;;;;;;;13.15;5.97;;;;;;;28.44;42.61;102414.69;5031937;28;20026;-83
2022/08/29 11:12:44;;;;;;;8.90;5.13;;;;;;;28.58;42.50;102408.31;5032481;28;20044;-83
2022/08/29 11:15:25;;;;;;;9.93;6.47;;;;;;;28.64;42.54;102421.59;5032905;28;20025;-83
2022/08/29 11:18:03;;;;;;;19.23;7.10;;;;;;;28.48;42.73;102418.31;5032253;28;20025;-83
2022/08/29 11:20:37;;;;;;;19.77;7.35;;;;;;;28.72;41.95;102422.41;5032735;28;20053;-86
2022/08/29 11:23:31;;;;;;;11.98;6.13;;;;;;;28.65;42.19;102422.41;5033298;28;20529;-83
2022/08/29 11:26:04;;;;;;;15.05;5.78;;;;;;;28.58;42.12;102422.38;5031131;28;20072;-88
2022/08/29 11:28:46;;;;;;;10.57;6.07;;;;;;;28.71;41.70;102417.97;5031722;28;20120;-87
2022/08/29 11:31:44;;;;;;;12.02;5.50;;;;;;;28.71;41.80;102418.78;5032887;28;20061;-81
2022/08/29 11:34:41;;;;;;;12.30;6.13;;;;;;;28.87;41.45;102423.22;5031090;28;20080;-79